Time;durP1;ratioP1;P1;durP2;ratioP2;P2;SDS_P1;SDS_P2;PMS_P1;PMS_P2;Temp;Humidity;BMP_temperature;BMP_pressure;BME280_temperature;BME280_humidity;BME280_pressure;Samples;Min_cycle;Max_cycle;Signal;HPM_P1;HPM_P2
2023/03/20 00:01:13;;;;;;;4.28;3.40;;;9.60;99.90;;;;;;5003815;28;20074;-78
2023/03/20 00:03:40;;;;;;;4.28;3.22;;;9.60;99.90;;;;;;4994339;28;20058;-78
2023/03/20 00:06:21;;;;;;;4.50;3.38;;;9.60;99.90;;;;;;5002346;28;20117;-78
2023/03/20 00:08:48;;;;;;;3.22;2.92;;;9.60;99.90;;;;;;5002188;28;20034;-78
2023/03/20 00:11:29;;;;;;;4.53;3.30;;;9.60;99.90;;;;;;4995018;28;20046;-78
2023/03/20 00:14:09;;;;;;;4.13;3.00;;;9.60;99.90;;;;;;5003863;28;20137;-78
2023/03/20 00:16:41;;;;;;;4.70;3.22;;;9.50;99.90;;;;;;4998769;28;20134;-78
2023/03/20 00:19:17;;;;;;;6.32;3.03;;;9.50;99.90;;;;;;5002537;28;20069;-78
2023/03/20 00:21:46;;;;;;;4.25;3.00;;;9.60;99.90;;;;;;5005629;28;20031;-78
2023/03/20 00:24:12;;;;;;;4.97;3.13;;;9.50;99.90;;;;;;5002985;28;20137;-78
2023/03/20 00:26:38;;;;;;;4.03;3.67;;;9.60;99.90;;;;;;4999280;28;20038;-78
2023/03/20 00:29:06;;;;;;;3.53;3.22;;;9.50;99.90;;;;;;5007335;28;20038;-78
2023/03/20 00:31:37;;;;;;;7.10;3.88;;;9.50;99.90;;;;;;4999670;28;20116;-78
2023/03/20 00:34:06;;;;;;;5.18;3.30;;;9.50;99.90;;;;;;4999632;28;20030;-78
2023/03/20 00:36:32;;;;;;;4.78;3.30;;;9.50;99.90;;;;;;5004068;28;20030;-78
2023/03/20 00:38:58;;;;;;;4.43;3.10;;;9.50;99.90;;;;;;5001170;28;20049;-78
2023/03/20 00:41:28;;;;;;;3.90;3.50;;;9.50;99.90;;;;;;5002260;28;20038;-78
2023/03/20 00:44:21;;;;;;;4.40;3.80;;;9.50;99.90;;;;;;5007870;28;20049;-78
2023/03/20 00:47:21;;;;;;;5.00;3.45;;;9.50;99.90;;;;;;5001823;28;20034;-78
2023/03/20 00:49:49;;;;;;;3.63;3.10;;;9.50;99.90;;;;;;4997912;28;20106;-78
2023/03/20 00:52:17;;;;;;;4.47;3.53;;;9.50;99.90;;;;;;4995759;28;20097;-78
2023/03/20 00:54:43;;;;;;;4.30;3.13;;;9.50;99.90;;;;;;5000741;28;20034;-78
2023/03/20 00:57:23;;;;;;;5.10;3.58;;;9.40;99.90;;;;;;5002184;28;20126;-78
2023/03/20 01:00:00;;;;;;;3.75;3.30;;;9.40;99.90;;;;;;5008655;28;20046;-78
2023/03/20 01:02:28;;;;;;;3.17;2.83;;;9.40;99.90;;;;;;5000048;28;20042;-78
2023/03/20 01:04:54;;;;;;;4.47;2.92;;;9.40;99.90;;;;;;5006884;28;20049;-78
2023/03/20 01:07:20;;;;;;;4.65;2.88;;;9.30;99.90;;;;;;4997197;28;20038;-78
2023/03/20 01:09:46;;;;;;;3.28;2.92;;;9.30;99.90;;;;;;5002286;28;20120;-78
2023/03/20 01:12:13;;;;;;;3.83;2.85;;;9.30;99.90;;;;;;4993793;28;20530;-78
2023/03/20 01:14:38;;;;;;;4.50;3.00;;;9.30;99.90;;;;;;4997769;28;20060;-78
2023/03/20 01:17:04;;;;;;;3.50;3.10;;;9.30;99.90;;;;;;4996852;28;20402;-78
2023/03/20 01:19:30;;;;;;;4.93;2.80;;;9.30;99.90;;;;;;4994737;28;20034;-78
2023/03/20 01:21:55;;;;;;;7.55;3.35;;;9.20;99.90;;;;;;4998337;28;20053;-78
2023/03/20 01:24:21;;;;;;;3.30;2.75;;;9.30;99.90;;;;;;4996120;28;20034;-78
2023/03/20 01:26:48;;;;;;;3.50;3.20;;;9.20;99.90;;;;;;4998697;28;20145;-78
2023/03/20 01:29:26;;;;;;;3.22;2.92;;;9.20;99.90;;;;;;4999268;28;20033;-78
2023/03/20 01:31:52;;;;;;;3.80;3.17;;;9.20;99.90;;;;;;4998977;28;20518;-78
2023/03/20 01:34:19;;;;;;;6.25;3.00;;;9.20;99.90;;;;;;5000440;28;20023;-78
2023/03/20 01:36:54;;;;;;;3.13;2.80;;;9.20;99.90;;;;;;5003523;28;20410;-78
2023/03/20 01:39:23;;;;;;;3.42;2.92;;;9.20;99.90;;;;;;4997110;28;20061;-77
2023/03/20 01:41:51;;;;;;;3.55;2.80;;;9.10;99.90;;;;;;4996622;28;20065;-78
2023/03/20 01:44:23;;;;;;;4.07;2.95;;;9.10;99.90;;;;;;4993529;28;20042;-78
2023/03/20 01:46:52;;;;;;;2.72;2.50;;;9.10;99.90;;;;;;4998863;28;20054;-78
2023/03/20 01:49:18;;;;;;;4.50;2.72;;;9.10;99.90;;;;;;4995525;28;20043;-78
2023/03/20 01:51:43;;;;;;;4.78;2.80;;;9.00;99.90;;;;;;4997450;28;20034;-78
2023/03/20 01:54:17;;;;;;;5.20;2.65;;;9.00;99.90;;;;;;4989057;28;20033;-78
2023/03/20 01:57:00;;;;;;;3.03;2.72;;;9.00;99.90;;;;;;5001177;28;20030;-78
2023/03/20 01:59:30;;;;;;;3.53;2.67;;;9.00;99.90;;;;;;4993747;28;20454;-78
2023/03/20 02:01:56;;;;;;;3.65;2.92;;;9.00;99.90;;;;;;4991116;28;20046;-78
2023/03/20 02:04:28;;;;;;;4.47;2.88;;;9.00;99.90;;;;;;5001162;28;20118;-78
2023/03/20 02:06:54;;;;;;;3.22;2.83;;;9.00;99.90;;;;;;4997324;28;20030;-78
2023/03/20 02:09:20;;;;;;;4.40;2.28;;;9.00;99.90;;;;;;5001938;28;20093;-78
2023/03/20 02:11:47;;;;;;;3.42;3.00;;;9.00;99.90;;;;;;4995655;28;20006;-77
2023/03/20 02:14:13;;;;;;;3.63;2.53;;;9.00;99.90;;;;;;4996336;28;20113;-78
2023/03/20 02:16:39;;;;;;;6.03;4.90;;;9.00;99.90;;;;;;5002692;28;20035;-78
2023/03/20 02:19:14;;;;;;;15.40;10.05;;;9.00;99.90;;;;;;4997186;28;20045;-78
2023/03/20 02:22:04;;;;;;;13.43;8.23;;;9.00;99.90;;;;;;5000979;28;20086;-77
2023/03/20 02:24:48;;;;;;;14.68;10.20;;;8.90;99.90;;;;;;4999257;28;20019;-78
2023/03/20 02:27:37;;;;;;;6.50;4.43;;;8.90;99.90;;;;;;4999746;28;20061;-78
2023/03/20 02:30:24;;;;;;;2.88;2.53;;;8.90;99.90;;;;;;4997931;28;20569;-77
2023/03/20 02:33:20;;;;;;;3.78;2.60;;;8.90;99.90;;;;;;4999422;28;20108;-78
2023/03/20 02:36:13;;;;;;;4.43;2.50;;;8.90;99.90;;;;;;5014036;28;20387;-78
2023/03/20 02:39:11;;;;;;;2.90;2.60;;;8.90;99.90;;;;;;4996137;28;20038;-78
2023/03/20 02:42:06;;;;;;;3.20;2.38;;;8.90;99.90;;;;;;5001974;28;20108;-77
2023/03/20 02:44:58;;;;;;;2.92;2.35;;;8.80;99.90;;;;;;4996964;28;20022;-78
2023/03/20 02:47:36;;;;;;;3.38;2.40;;;8.80;99.90;;;;;;4992717;28;20050;-78
2023/03/20 02:50:11;;;;;;;2.17;2.00;;;8.80;99.90;;;;;;4995377;28;20026;-78
2023/03/20 02:52:42;;;;;;;4.18;2.20;;;8.80;99.90;;;;;;5004820;28;20021;-78
2023/03/20 02:55:28;;;;;;;2.25;2.03;;;8.80;99.90;;;;;;4998130;28;20049;-78
2023/03/20 02:57:54;;;;;;;3.15;2.28;;;8.80;99.90;;;;;;4978336;28;20070;-77
2023/03/20 03:00:32;;;;;;;3.15;2.25;;;8.80;99.90;;;;;;4992310;28;20014;-78
2023/03/20 03:03:23;;;;;;;2.40;2.20;;;8.80;99.90;;;;;;4998134;28;20057;-78
2023/03/20 03:05:58;;;;;;;2.70;2.00;;;8.80;99.90;;;;;;4994377;28;20045;-78
2023/03/20 03:08:30;;;;;;;4.00;2.67;;;8.70;99.90;;;;;;5005236;28;20030;-78
2023/03/20 03:11:04;;;;;;;2.50;2.30;;;8.70;99.90;;;;;;5001358;28;20061;-78
2023/03/20 03:13:32;;;;;;;2.20;2.08;;;8.70;99.90;;;;;;4994170;28;20042;-78
2023/03/20 03:16:03;;;;;;;2.63;2.22;;;8.70;99.90;;;;;;4994411;28;20037;-78
2023/03/20 03:18:31;;;;;;;2.58;2.38;;;8.70;99.90;;;;;;4997579;28;20391;-78
2023/03/20 03:20:59;;;;;;;3.00;2.70;;;8.60;99.90;;;;;;4997096;28;20053;-78
2023/03/20 03:23:33;;;;;;;2.70;2.50;;;8.60;99.90;;;;;;5001443;28;20430;-78
2023/03/20 03:26:01;;;;;;;4.93;2.90;;;8.60;99.90;;;;;;5001816;28;20050;-78
2023/03/20 03:28:43;;;;;;;3.28;2.30;;;8.60;99.90;;;;;;5000927;28;20054;-77
2023/03/20 03:31:12;;;;;;;3.38;2.17;;;8.50;99.90;;;;;;4995771;28;20043;-78
2023/03/20 03:33:45;;;;;;;2.60;2.38;;;8.50;99.90;;;;;;5004726;28;20129;-78
2023/03/20 03:36:20;;;;;;;2.92;2.40;;;8.50;99.90;;;;;;5002533;28;20030;-78
2023/03/20 03:39:18;;;;;;;4.90;2.55;;;8.50;99.90;;;;;;5003326;28;20083;-78
2023/03/20 03:41:49;;;;;;;3.97;2.80;;;8.50;99.90;;;;;;4998797;28;20054;-78
2023/03/20 03:44:31;;;;;;;3.42;2.80;;;8.50;99.90;;;;;;5006131;28;20045;-78
2023/03/20 03:47:03;;;;;;;5.45;2.75;;;8.50;99.90;;;;;;4999789;28;20090;-78
2023/03/20 03:49:33;;;;;;;3.05;2.70;;;8.40;99.90;;;;;;4998770;28;20054;-78
2023/03/20 03:52:08;;;;;;;3.05;2.75;;;8.40;99.90;;;;;;4995976;28;20107;-78
2023/03/20 03:54:42;;;;;;;3.33;2.40;;;8.40;99.90;;;;;;5002573;28;20038;-78
2023/03/20 03:57:09;;;;;;;2.85;2.55;;;8.40;99.90;;;;;;5000059;28;20110;-78
2023/03/20 03:59:39;;;;;;;4.32;3.05;;;8.40;99.90;;;;;;4999002;28;20073;-78
2023/03/20 04:02:07;;;;;;;2.55;2.35;;;8.40;99.90;;;;;;4998904;28;20069;-78
2023/03/20 04:04:35;;;;;;;3.35;2.50;;;8.30;99.90;;;;;;5003109;28;20072;-78
2023/03/20 04:07:01;;;;;;;3.05;2.65;;;8.20;99.90;;;;;;5001657;28;20382;-78
2023/03/20 04:09:27;;;;;;;2.67;2.47;;;8.00;99.90;;;;;;5004560;28;20053;-78
2023/03/20 04:11:53;;;;;;;2.70;2.50;;;7.90;99.90;;;;;;4998063;28;20090;-78
2023/03/20 04:14:19;;;;;;;3.35;2.60;;;7.80;99.90;;;;;;4995667;28;20057;-77
2023/03/20 04:16:45;;;;;;;3.28;2.67;;;7.70;99.90;;;;;;5014588;28;20054;-77
2023/03/20 04:19:11;;;;;;;3.78;2.70;;;7.60;99.90;;;;;;5003959;28;20022;-78
2023/03/20 04:21:37;;;;;;;2.40;2.20;;;7.60;99.90;;;;;;5000062;28;20034;-77
2023/03/20 04:24:03;;;;;;;2.70;2.50;;;7.60;99.90;;;;;;5004115;28;20038;-78
2023/03/20 04:26:29;;;;;;;4.28;2.55;;;7.70;99.90;;;;;;4998465;28;20089;-78
2023/03/20 04:28:54;;;;;;;4.57;3.20;;;7.80;99.90;;;;;;5002175;28;20474;-78
2023/03/20 04:31:20;;;;;;;5.32;3.97;;;7.80;99.90;;;;;;4992827;28;20045;-78
2023/03/20 04:33:46;;;;;;;4.50;3.80;;;7.90;99.90;;;;;;5003337;28;20046;-77
2023/03/20 04:36:12;;;;;;;3.47;2.55;;;7.80;99.90;;;;;;4998375;28;20038;-77
2023/03/20 04:38:38;;;;;;;4.50;3.00;;;7.80;99.90;;;;;;5001358;28;20077;-77
2023/03/20 04:41:04;;;;;;;3.65;2.72;;;7.80;99.90;;;;;;5003107;28;20046;-78
2023/03/20 04:43:29;;;;;;;3.72;2.80;;;7.90;99.90;;;;;;4999747;28;20050;-78
2023/03/20 04:45:55;;;;;;;2.97;2.78;;;7.90;99.90;;;;;;5008449;28;20026;-78
2023/03/20 04:48:21;;;;;;;4.47;3.17;;;7.90;99.90;;;;;;4997368;28;20092;-78
2023/03/20 04:50:47;;;;;;;3.42;3.08;;;8.00;99.90;;;;;;5004240;28;20038;-78
2023/03/20 04:53:14;;;;;;;4.20;3.15;;;7.90;99.90;;;;;;5003313;28;20046;-78
2023/03/20 04:55:40;;;;;;;3.63;3.00;;;7.90;99.90;;;;;;5000480;28;20030;-78
2023/03/20 04:58:06;;;;;;;3.05;2.85;;;7.90;99.90;;;;;;4999297;28;20053;-77
2023/03/20 05:00:32;;;;;;;3.20;2.90;;;7.90;99.90;;;;;;4999129;28;20043;-78
2023/03/20 05:02:57;;;;;;;5.28;3.47;;;7.90;99.90;;;;;;4997432;28;20126;-78
2023/03/20 05:05:23;;;;;;;4.55;3.67;;;8.00;99.90;;;;;;5002145;28;20053;-77
2023/03/20 05:07:50;;;;;;;3.80;3.15;;;8.00;99.90;;;;;;5000539;28;20534;-77
2023/03/20 05:10:16;;;;;;;7.03;4.35;;;8.00;99.90;;;;;;4998221;28;20074;-78
2023/03/20 05:12:42;;;;;;;10.13;4.80;;;8.00;99.90;;;;;;4996487;28;20422;-78
2023/03/20 05:15:08;;;;;;;8.10;4.70;;;7.90;99.90;;;;;;5001900;28;20026;-77
2023/03/20 05:17:34;;;;;;;3.45;3.03;;;7.90;99.90;;;;;;5001927;28;20386;-78
2023/03/20 05:19:59;;;;;;;4.80;3.47;;;7.90;99.90;;;;;;4999356;28;20026;-78
2023/03/20 05:22:25;;;;;;;3.97;3.10;;;7.90;99.90;;;;;;4998332;28;20041;-77
2023/03/20 05:24:50;;;;;;;5.63;3.67;;;8.00;99.90;;;;;;5000211;28;20037;-77
2023/03/20 05:27:16;;;;;;;3.55;3.10;;;8.00;99.90;;;;;;5004240;28;20046;-78
2023/03/20 05:29:42;;;;;;;3.15;2.72;;;8.00;99.90;;;;;;4998323;28;20042;-78
2023/03/20 05:32:07;;;;;;;4.43;3.30;;;8.00;99.90;;;;;;4995288;28;20083;-78
2023/03/20 05:34:33;;;;;;;5.45;3.10;;;8.00;99.90;;;;;;4997703;28;20031;-78
2023/03/20 05:36:59;;;;;;;3.13;2.80;;;8.00;99.90;;;;;;5005240;28;20038;-78
2023/03/20 05:39:25;;;;;;;5.20;2.85;;;8.00;99.90;;;;;;4993767;28;20030;-78
2023/03/20 05:41:50;;;;;;;4.65;3.88;;;8.00;99.90;;;;;;4999361;28;20034;-77
2023/03/20 05:44:16;;;;;;;4.88;3.80;;;8.00;99.90;;;;;;5002660;28;20065;-78
2023/03/20 05:46:42;;;;;;;3.70;3.17;;;8.00;99.90;;;;;;5002569;28;20037;-78
2023/03/20 05:49:07;;;;;;;4.88;3.70;;;8.00;99.90;;;;;;5002452;28;20094;-78
2023/03/20 05:51:33;;;;;;;4.75;3.55;;;8.00;99.90;;;;;;4996564;28;20034;-77
2023/03/20 05:53:59;;;;;;;6.80;3.92;;;8.00;99.90;;;;;;4994535;28;20030;-78
2023/03/20 05:56:25;;;;;;;5.22;3.60;;;8.00;99.90;;;;;;5004214;28;20799;-78
2023/03/20 05:58:51;;;;;;;5.38;3.63;;;7.90;99.90;;;;;;4995955;28;20064;-73
2023/03/20 06:01:20;;;;;;;4.03;3.63;;;8.00;99.90;;;;;;4993337;28;20030;-78
2023/03/20 06:03:46;;;;;;;;;;;8.00;99.90;;;;;;4998243;28;20394;-78
2023/03/20 06:06:12;;;;;;;4.15;3.60;;;8.00;99.90;;;;;;5000086;28;20892;-78
2023/03/20 06:08:37;;;;;;;5.03;3.35;;;8.00;99.90;;;;;;4996335;28;20099;-78
2023/03/20 06:11:03;;;;;;;5.10;3.83;;;8.10;99.90;;;;;;4993186;28;20069;-78
2023/03/20 06:13:29;;;;;;;4.78;3.58;;;8.10;99.90;;;;;;4995767;28;20040;-77
2023/03/20 06:15:55;;;;;;;6.28;3.85;;;8.10;99.90;;;;;;5000313;28;20034;-77
2023/03/20 06:18:20;;;;;;;4.35;3.47;;;8.10;99.90;;;;;;4999395;28;20101;-78
2023/03/20 06:20:52;;;;;;;4.05;3.65;;;8.20;99.90;;;;;;4998985;28;20034;-78
2023/03/20 06:23:17;;;;;;;6.57;3.72;;;8.10;99.90;;;;;;4996761;28;20502;-77
2023/03/20 06:25:43;;;;;;;5.40;3.88;;;8.20;99.90;;;;;;4998870;28;20042;-77
2023/03/20 06:28:08;;;;;;;5.90;4.13;;;8.20;99.90;;;;;;4995932;28;20044;-78
2023/03/20 06:30:34;;;;;;;4.32;3.75;;;8.30;99.90;;;;;;5000425;28;20030;-77
2023/03/20 06:33:00;;;;;;;4.60;3.83;;;8.40;99.90;;;;;;4998599;28;20089;-78
2023/03/20 06:35:29;;;;;;;5.10;3.97;;;8.40;99.90;;;;;;4999252;28;20057;-77
2023/03/20 06:37:55;;;;;;;4.68;3.63;;;8.50;99.90;;;;;;4996925;28;20062;-77
2023/03/20 06:40:21;;;;;;;5.53;3.83;;;8.60;99.90;;;;;;4998028;28;20481;-79
2023/03/20 06:42:47;;;;;;;3.60;3.20;;;8.60;99.90;;;;;;4994732;28;20030;-76
2023/03/20 06:45:12;;;;;;;5.28;4.07;;;8.70;99.90;;;;;;4997989;28;20049;-75
2023/03/20 06:47:38;;;;;;;6.68;4.05;;;8.70;99.90;;;;;;4998660;28;20034;-78
2023/03/20 06:50:04;;;;;;;5.30;4.40;;;8.70;99.90;;;;;;4997288;28;20042;-79
2023/03/20 06:52:30;;;;;;;5.25;3.72;;;8.80;99.90;;;;;;5004935;28;20038;-79
2023/03/20 06:54:56;;;;;;;5.20;4.28;;;8.80;99.90;;;;;;5004041;28;20104;-79
2023/03/20 06:57:23;;;;;;;4.50;3.53;;;8.80;99.90;;;;;;4992248;28;20038;-79
2023/03/20 06:59:48;;;;;;;5.70;3.72;;;8.70;99.90;;;;;;4995582;28;20435;-79
2023/03/20 07:02:15;;;;;;;6.25;4.25;;;8.70;99.90;;;;;;4981252;28;20101;-80
2023/03/20 07:04:40;;;;;;;5.55;4.00;;;8.80;99.90;;;;;;5018933;28;20041;-80
2023/03/20 07:07:06;;;;;;;5.30;4.13;;;8.90;99.90;;;;;;4995130;28;20035;-81
2023/03/20 07:09:32;;;;;;;6.68;3.95;;;8.90;99.90;;;;;;4994185;28;20570;-80
2023/03/20 07:11:58;;;;;;;4.55;3.97;;;9.00;99.90;;;;;;4997246;28;20053;-80
2023/03/20 07:14:24;;;;;;;5.78;3.95;;;9.10;99.90;;;;;;4999570;28;20097;-79
2023/03/20 07:16:50;;;;;;;4.93;4.22;;;9.10;99.90;;;;;;4999518;28;20652;-80
2023/03/20 07:19:16;;;;;;;4.30;3.30;;;9.20;99.90;;;;;;5000160;28;20108;-80
2023/03/20 07:21:42;;;;;;;4.63;3.92;;;9.20;99.90;;;;;;4998425;28;20521;-79
2023/03/20 07:24:08;;;;;;;4.55;3.67;;;9.30;99.90;;;;;;4998103;28;20045;-79
2023/03/20 07:26:33;;;;;;;3.78;3.25;;;9.40;99.90;;;;;;4996799;28;20038;-79
2023/03/20 07:28:59;;;;;;;3.78;3.20;;;9.40;99.90;;;;;;5000458;28;20042;-79
2023/03/20 07:31:27;;;;;;;7.70;3.38;;;9.50;99.90;;;;;;4996646;28;20042;-79
2023/03/20 07:33:53;;;;;;;4.93;3.53;;;9.40;99.90;;;;;;4993292;28;20046;-79
2023/03/20 07:36:19;;;;;;;4.03;3.53;;;9.40;99.90;;;;;;4999582;28;20053;-78
2023/03/20 07:38:44;;;;;;;4.07;3.58;;;9.40;99.90;;;;;;4994658;28;20054;-79
2023/03/20 07:41:10;;;;;;;4.40;3.00;;;9.50;99.90;;;;;;4995779;28;20034;-78
2023/03/20 07:43:36;;;;;;;2.70;2.50;;;9.40;99.90;;;;;;4996840;28;20066;-79
2023/03/20 07:46:06;;;;;;;3.22;2.80;;;9.30;99.90;;;;;;4997748;28;20458;-79
2023/03/20 07:48:32;;;;;;;3.40;2.83;;;9.30;99.90;;;;;;4992753;28;20095;-79
2023/03/20 07:50:58;;;;;;;3.65;2.95;;;9.40;99.90;;;;;;4995931;28;20069;-79
2023/03/20 07:53:23;;;;;;;3.47;2.65;;;9.60;99.90;;;;;;4994905;28;20062;-78
2023/03/20 07:55:49;;;;;;;3.28;2.78;;;9.60;99.90;;;;;;4996580;28;20097;-79
2023/03/20 07:58:15;;;;;;;4.03;2.58;;;9.80;99.90;;;;;;5001472;28;20033;-79
2023/03/20 08:00:41;;;;;;;3.90;3.30;;;9.70;99.90;;;;;;4995706;28;20049;-79
2023/03/20 08:03:06;;;;;;;3.08;2.78;;;9.70;99.90;;;;;;4997117;28;20038;-78
2023/03/20 08:05:32;;;;;;;3.58;2.70;;;9.80;99.90;;;;;;5001335;28;20042;-79
2023/03/20 08:07:58;;;;;;;2.60;2.40;;;9.80;99.90;;;;;;4995544;28;20030;-79
2023/03/20 08:10:24;;;;;;;3.78;2.45;;;9.90;99.90;;;;;;4997570;28;20067;-79
2023/03/20 08:12:50;;;;;;;2.28;2.03;;;10.00;99.90;;;;;;5005752;28;20072;-78
2023/03/20 08:15:16;;;;;;;3.03;2.25;;;10.20;99.90;;;;;;4997800;28;20038;-79
2023/03/20 08:17:44;;;;;;;2.10;2.00;;;10.30;99.90;;;;;;5001069;28;20479;-78
2023/03/20 08:20:11;;;;;;;2.38;2.17;;;10.20;99.90;;;;;;4994322;28;20441;-79
2023/03/20 08:22:37;;;;;;;4.78;2.35;;;10.10;99.90;;;;;;5001471;28;20549;-78
2023/03/20 08:25:03;;;;;;;3.25;2.15;;;10.30;99.90;;;;;;5002069;28;20034;-80
2023/03/20 08:27:29;;;;;;;2.13;1.90;;;10.30;99.90;;;;;;5003406;28;20081;-80
2023/03/20 08:29:55;;;;;;;2.42;2.22;;;10.30;99.90;;;;;;5002359;28;20482;-80
2023/03/20 08:32:21;;;;;;;2.88;2.05;;;10.40;99.90;;;;;;5005187;28;20039;-81
2023/03/20 08:34:46;;;;;;;2.60;2.15;;;10.30;99.90;;;;;;4994365;28;20043;-81
2023/03/20 08:37:12;;;;;;;2.30;2.10;;;10.40;99.90;;;;;;5002507;28;20094;-81
2023/03/20 08:39:38;;;;;;;3.70;1.90;;;10.60;99.90;;;;;;4999508;28;20030;-81
2023/03/20 08:42:05;;;;;;;3.95;2.20;;;10.70;99.90;;;;;;4995859;28;20558;-81
2023/03/20 08:44:31;;;;;;;1.85;1.67;;;10.90;99.90;;;;;;5001951;28;20030;-81
2023/03/20 08:46:57;;;;;;;2.28;2.08;;;10.80;99.90;;;;;;5001260;28;20049;-82
2023/03/20 08:49:23;;;;;;;1.98;1.73;;;10.50;99.90;;;;;;5002100;28;20050;-81
2023/03/20 08:51:48;;;;;;;2.17;1.67;;;10.70;99.90;;;;;;4994809;28;20023;-80
2023/03/20 08:54:17;;;;;;;2.20;2.00;;;10.90;99.90;;;;;;5001386;28;20073;-81
2023/03/20 08:56:43;;;;;;;;;;;11.00;99.90;;;;;;5001027;28;20057;-81
2023/03/20 08:59:08;;;;;;;1.70;1.60;;;11.10;99.90;;;;;;4999263;28;19909;-81
2023/03/20 09:01:34;;;;;;;1.92;1.83;;;11.00;99.90;;;;;;5000582;28;20042;-81
2023/03/20 09:03:59;;;;;;;2.03;1.92;;;11.10;99.90;;;;;;4999356;28;20034;-82
2023/03/20 09:06:25;;;;;;;2.05;1.95;;;11.30;99.90;;;;;;4996662;28;20033;-81
2023/03/20 09:08:53;;;;;;;2.70;1.90;;;11.50;99.90;;;;;;5006229;28;20701;-81
2023/03/20 09:11:19;;;;;;;2.20;1.70;;;11.60;99.90;;;;;;5003058;28;20073;-81
2023/03/20 09:13:44;;;;;;;1.88;1.70;;;11.80;99.90;;;;;;4995469;28;20308;-81
2023/03/20 09:16:10;;;;;;;2.00;1.80;;;12.00;99.90;;;;;;4999881;28;20042;-82
2023/03/20 09:18:36;;;;;;;1.27;1.23;;;11.70;99.90;;;;;;4998794;28;20680;-82
2023/03/20 09:21:01;;;;;;;4.13;2.40;;;11.20;99.90;;;;;;5002744;28;20033;-81
2023/03/20 09:23:27;;;;;;;2.03;1.83;;;11.10;99.90;;;;;;4998751;28;20038;-80
2023/03/20 09:25:53;;;;;;;1.50;1.40;;;11.30;99.90;;;;;;5002782;28;20040;-82
2023/03/20 09:28:18;;;;;;;1.95;1.85;;;11.50;99.90;;;;;;4998213;28;20038;-81
2023/03/20 09:30:44;;;;;;;2.38;1.90;;;11.50;99.90;;;;;;4996725;28;20037;-82
2023/03/20 09:33:10;;;;;;;1.90;1.77;;;11.50;99.90;;;;;;5006614;28;20059;-82
2023/03/20 09:35:36;;;;;;;2.55;1.77;;;11.50;99.90;;;;;;5000505;28;20029;-81
2023/03/20 09:38:02;;;;;;;1.33;1.23;;;11.60;99.90;;;;;;5004417;28;20041;-82
2023/03/20 09:40:51;;;;;;;1.80;1.70;;;11.70;99.90;;;;;;5000072;28;20027;-81
2023/03/20 09:43:35;;;;;;;1.95;1.40;;;11.80;99.90;;;;;;5003237;28;20030;-81
2023/03/20 09:46:15;;;;;;;1.65;1.40;;;11.70;99.90;;;;;;4994425;28;20126;-81
2023/03/20 09:49:04;;;;;;;1.20;1.13;;;11.40;99.90;;;;;;5016052;28;20069;-81
2023/03/20 09:51:51;;;;;;;1.50;1.10;;;11.30;99.90;;;;;;5006000;28;20069;-81
2023/03/20 09:54:39;;;;;;;1.80;1.08;;;11.30;99.90;;;;;;4996162;28;20038;-81
2023/03/20 09:57:08;;;;;;;1.20;1.10;;;11.30;99.90;;;;;;4999174;28;20050;-81
2023/03/20 09:59:35;;;;;;;;;;;11.50;99.90;;;;;;4999848;28;20466;-81
2023/03/20 10:02:13;;;;;;;4.32;1.45;;;11.50;99.90;;;;;;4980938;28;19917;-81
2023/03/20 10:04:39;;;;;;;;;;;11.60;99.90;;;;;;4982174;28;20111;-81
2023/03/20 10:07:08;;;;;;;1.25;1.15;;;11.70;99.90;;;;;;4978478;28;20453;-80
2023/03/20 10:09:33;;;;;;;;;;;11.60;99.90;;;;;;4981569;28;20058;-81
2023/03/20 10:12:36;;;;;;;1.25;1.15;;;11.50;99.90;;;;;;4982307;28;19914;-81
2023/03/20 10:15:32;;;;;;;1.98;0.90;;;11.50;99.90;;;;;;4977918;28;20031;-81
2023/03/20 10:18:25;;;;;;;1.55;1.02;;;11.70;99.90;;;;;;4977947;28;20085;-80
2023/03/20 10:21:05;;;;;;;2.25;1.20;;;12.20;99.90;;;;;;4977852;28;20115;-81
2023/03/20 10:23:41;;;;;;;1.58;1.02;;;12.20;99.90;;;;;;4975820;28;20019;-81
2023/03/20 10:26:11;;;;;;;1.25;1.15;;;12.00;99.90;;;;;;4967755;28;20027;-81
2023/03/20 10:29:00;;;;;;;1.08;0.90;;;12.00;99.90;;;;;;4966315;28;20034;-81
2023/03/20 10:31:54;;;;;;;0.88;0.88;;;11.80;99.90;;;;;;4975874;28;20035;-80
2023/03/20 10:34:45;;;;;;;1.67;1.10;;;11.80;99.90;;;;;;4967054;28;20150;-81
2023/03/20 10:37:25;;;;;;;0.77;0.77;;;12.00;99.90;;;;;;4964832;28;20034;-80
2023/03/20 10:40:26;;;;;;;2.20;0.70;;;12.30;99.90;;;;;;4969902;28;20047;-80
2023/03/20 10:42:55;;;;;;;1.25;1.08;;;12.90;99.90;;;;;;4981278;28;20495;-80
2023/03/20 10:45:32;;;;;;;0.80;0.80;;;13.10;99.90;;;;;;4980083;28;20037;-81
2023/03/20 10:48:01;;;;;;;1.33;0.82;;;12.80;99.90;;;;;;4980157;28;20049;-80
2023/03/20 10:51:01;;;;;;;0.60;0.60;;;12.40;99.90;;;;;;4983951;28;20418;-80
2023/03/20 10:53:54;;;;;;;0.80;0.80;;;12.10;99.90;;;;;;4954385;28;20419;-80
2023/03/20 10:56:39;;;;;;;0.80;0.80;;;11.90;99.90;;;;;;4973951;28;20416;-80
2023/03/20 10:59:32;;;;;;;1.10;1.02;;;11.90;99.90;;;;;;4986555;28;20066;-79
2023/03/20 11:01:57;;;;;;;1.00;1.00;;;11.90;99.90;;;;;;4979769;28;20513;-80
2023/03/20 11:04:23;;;;;;;0.93;0.90;;;11.90;99.90;;;;;;4979638;28;20034;-80
2023/03/20 11:07:21;;;;;;;0.57;0.57;;;11.80;99.90;;;;;;4986113;28;20120;-79
2023/03/20 11:10:07;;;;;;;0.40;0.40;;;11.80;99.90;;;;;;4978549;28;20059;-79
2023/03/20 11:12:39;;;;;;;0.93;0.77;;;11.70;99.90;;;;;;4982302;28;20049;-80
2023/03/20 11:15:32;;;;;;;1.00;1.00;;;11.50;99.90;;;;;;4984317;28;20034;-80
2023/03/20 11:18:06;;;;;;;0.90;0.90;;;11.50;99.90;;;;;;4973903;28;20039;-80
2023/03/20 11:20:36;;;;;;;0.90;0.90;;;11.40;99.90;;;;;;4979734;28;20019;-80
2023/03/20 11:23:05;;;;;;;1.20;0.82;;;11.50;99.90;;;;;;4980254;28;20045;-79
2023/03/20 11:25:45;;;;;;;0.65;0.65;;;11.60;99.90;;;;;;4981150;28;20058;-79
2023/03/20 11:28:31;;;;;;;0.70;0.70;;;11.70;99.90;;;;;;4975891;28;20047;-79
2023/03/20 11:31:15;;;;;;;0.57;0.57;;;11.70;99.40;;;;;;4976793;28;20834;-79
2023/03/20 11:34:06;;;;;;;0.70;0.70;;;11.80;99.90;;;;;;4981296;28;20058;-80
2023/03/20 11:36:34;;;;;;;0.85;0.57;;;11.80;99.90;;;;;;4978846;28;20038;-79
2023/03/20 11:39:08;;;;;;;0.52;0.52;;;11.90;99.90;;;;;;4978643;28;20117;-79
2023/03/20 11:41:51;;;;;;;1.13;1.02;;;11.80;98.20;;;;;;4974850;28;20031;-79
2023/03/20 11:44:27;;;;;;;0.47;0.47;;;11.70;99.90;;;;;;4974685;28;20034;-79
2023/03/20 11:46:58;;;;;;;0.50;0.50;;;11.70;98.80;;;;;;4979255;28;20046;-79
2023/03/20 11:49:26;;;;;;;0.35;0.35;;;11.80;99.90;;;;;;4978082;28;20054;-79
2023/03/20 11:51:54;;;;;;;0.35;0.35;;;11.80;98.90;;;;;;4982944;28;20034;-79
2023/03/20 11:54:22;;;;;;;0.60;0.60;;;12.00;99.90;;;;;;4986701;28;20039;-79
2023/03/20 11:56:59;;;;;;;0.70;0.70;;;11.90;99.90;;;;;;4981780;28;20123;-79
2023/03/20 11:59:32;;;;;;;0.77;0.50;;;12.10;99.30;;;;;;4981667;28;20043;-79
2023/03/20 12:01:59;;;;;;;0.50;0.50;;;12.20;99.10;;;;;;4981920;28;20666;-79
2023/03/20 12:04:36;;;;;;;0.38;0.38;;;12.20;98.70;;;;;;4980650;28;20134;-79
2023/03/20 12:07:09;;;;;;;0.50;0.50;;;12.50;97.50;;;;;;4978588;28;20049;-80
2023/03/20 12:10:01;;;;;;;0.65;0.55;;;12.70;96.30;;;;;;4983843;28;20043;-79
2023/03/20 12:12:51;;;;;;;0.60;0.60;;;12.90;95.90;;;;;;4970086;28;20079;-78
2023/03/20 12:15:21;;;;;;;0.50;0.50;;;13.00;95.00;;;;;;4981202;28;20098;-79
2023/03/20 12:17:55;;;;;;;0.57;0.57;;;12.90;94.60;;;;;;4983378;28;20050;-79
2023/03/20 12:20:40;;;;;;;0.60;0.60;;;12.80;92.50;;;;;;4975576;28;20038;-79
2023/03/20 12:23:10;;;;;;;0.40;0.40;;;12.60;91.90;;;;;;4982266;28;20035;-79
2023/03/20 12:25:44;;;;;;;0.40;0.40;;;12.40;95.60;;;;;;4981083;28;20037;-79
2023/03/20 12:28:44;;;;;;;0.60;0.60;;;12.40;92.80;;;;;;4982069;28;20038;-80
2023/03/20 12:31:31;;;;;;;0.73;0.60;;;12.30;95.00;;;;;;4960152;28;20047;-80
2023/03/20 12:34:19;;;;;;;0.30;0.30;;;12.10;97.90;;;;;;4983324;28;20053;-79
2023/03/20 12:36:47;;;;;;;0.40;0.40;;;12.00;94.70;;;;;;4979409;28;20547;-80
2023/03/20 12:39:40;;;;;;;0.55;0.55;;;12.10;96.50;;;;;;4983441;28;20243;-80
2023/03/20 12:42:24;;;;;;;0.57;0.57;;;12.00;95.60;;;;;;4979529;28;20043;-81
2023/03/20 12:45:10;;;;;;;0.80;0.80;;;11.80;97.90;;;;;;4979104;28;20043;-80
2023/03/20 12:47:38;;;;;;;0.50;0.50;;;11.80;98.00;;;;;;4980470;28;20038;-80
2023/03/20 12:50:27;;;;;;;0.68;0.68;;;11.80;98.80;;;;;;4982559;28;20034;-80
2023/03/20 12:53:02;;;;;;;0.60;0.60;;;11.80;98.10;;;;;;4969908;28;20933;-80
2023/03/20 12:55:59;;;;;;;0.60;0.60;;;11.80;99.90;;;;;;4983027;28;20049;-80
2023/03/20 12:58:39;;;;;;;2.22;0.73;;;11.80;99.00;;;;;;4976205;28;20038;-80
2023/03/20 13:01:30;;;;;;;0.47;0.47;;;11.80;99.90;;;;;;4981637;28;20035;-80
2023/03/20 13:04:10;;;;;;;0.70;0.70;;;11.70;99.90;;;;;;4982029;28;20042;-80
2023/03/20 13:07:00;;;;;;;2.22;0.82;;;11.60;99.90;;;;;;4975788;28;20021;-80
2023/03/20 13:09:49;;;;;;;1.77;0.85;;;11.50;99.90;;;;;;4984639;28;20050;-80
2023/03/20 13:12:17;;;;;;;1.02;1.00;;;11.40;99.90;;;;;;4971272;28;20038;-80
2023/03/20 13:15:17;;;;;;;0.82;0.82;;;11.50;99.90;;;;;;4980041;28;20117;-80
2023/03/20 13:17:59;;;;;;;3.72;0.95;;;11.50;99.90;;;;;;4979906;28;20475;-80
2023/03/20 13:20:31;;;;;;;1.23;0.70;;;11.40;99.90;;;;;;4985939;28;20035;-80